createdAt,value
2023-03-06T00:00:03.286Z,79.9
2023-03-06T00:03:03.343Z,80.4
2023-03-06T00:06:03.557Z,80.4
2023-03-06T00:09:03.327Z,80.4
2023-03-06T00:12:03.326Z,80.4
2023-03-06T00:15:07.867Z,80.4
2023-03-06T00:18:03.392Z,80.4
2023-03-06T00:21:03.320Z,80.4
2023-03-06T00:24:03.303Z,80.3
2023-03-06T00:27:03.339Z,80.3
2023-03-06T00:30:03.370Z,80.3
2023-03-06T00:33:03.323Z,80.3
2023-03-06T00:36:03.349Z,80.3
2023-03-06T00:39:03.314Z,80.3
2023-03-06T00:42:03.298Z,80.3
2023-03-06T00:45:03.333Z,79.9
2023-03-06T00:48:03.350Z,79.9
2023-03-06T00:51:03.303Z,79.9
2023-03-06T00:54:03.322Z,79.9
2023-03-06T00:57:03.343Z,79.9
2023-03-06T01:00:03.361Z,79.9
2023-03-06T01:03:03.326Z,79.9
2023-03-06T01:06:03.308Z,79.9
2023-03-06T01:09:03.342Z,80
2023-03-06T01:12:03.315Z,80
2023-03-06T01:15:03.309Z,80
2023-03-06T01:18:03.388Z,80
2023-03-06T01:21:03.428Z,80
2023-03-06T01:24:03.367Z,80
2023-03-06T01:27:03.305Z,80
2023-03-06T01:30:03.338Z,80
2023-03-06T01:33:03.320Z,80
2023-03-06T01:36:03.328Z,80
2023-03-06T01:39:03.393Z,80
2023-03-06T01:42:03.376Z,80
2023-03-06T01:45:03.358Z,80
2023-03-06T01:48:03.342Z,80
2023-03-06T01:51:03.297Z,80.7
2023-03-06T01:54:03.344Z,80.7
2023-03-06T01:57:03.343Z,80.7
2023-03-06T02:00:03.342Z,80.7
2023-03-06T02:03:03.332Z,80.7
2023-03-06T02:06:03.375Z,80.7
2023-03-06T02:09:03.306Z,80.7
2023-03-06T02:12:03.312Z,80.7
2023-03-06T02:15:03.354Z,80.7
2023-03-06T02:18:03.326Z,80.9
2023-03-06T02:21:03.322Z,80.9
2023-03-06T02:24:03.338Z,80.9
2023-03-06T02:27:03.337Z,80.9
2023-03-06T02:30:03.323Z,80.9
2023-03-06T02:33:03.337Z,80.9
2023-03-06T02:36:03.493Z,80.9
2023-03-06T02:39:03.330Z,80.9
2023-03-06T02:42:03.350Z,80.9
2023-03-06T02:45:03.370Z,80.9
2023-03-06T02:48:03.296Z,80.9
2023-03-06T02:51:03.388Z,80.9
2023-03-06T02:54:03.302Z,80.9
2023-03-06T02:57:03.337Z,81.4
2023-03-06T03:00:03.379Z,81.4
2023-03-06T03:03:03.335Z,81.4
2023-03-06T03:06:03.332Z,81.4
2023-03-06T03:09:03.328Z,81.4
2023-03-06T03:12:03.350Z,81.4
2023-03-06T03:15:03.358Z,81.4
2023-03-06T03:18:03.429Z,81.4
2023-03-06T03:21:03.295Z,81.4
2023-03-06T03:24:03.363Z,81.4
2023-03-06T03:27:03.323Z,81.4
2023-03-06T03:30:03.373Z,81.4
2023-03-06T03:33:03.375Z,81.4
2023-03-06T03:36:03.320Z,81.4
2023-03-06T03:39:03.390Z,81.4
2023-03-06T03:42:03.365Z,81.4
2023-03-06T03:45:03.381Z,81.8
2023-03-06T03:48:03.324Z,81.8
2023-03-06T03:51:03.406Z,81.8
2023-03-06T03:54:03.309Z,81.8
2023-03-06T03:57:03.380Z,81.8
2023-03-06T04:00:03.381Z,81.8
2023-03-06T04:03:03.377Z,81.8
2023-03-06T04:06:03.375Z,81.8
2023-03-06T04:09:03.359Z,81.8
2023-03-06T04:12:03.320Z,81.8
2023-03-06T04:15:03.616Z,82.1
2023-03-06T04:18:03.299Z,82.1
2023-03-06T04:21:03.382Z,82.1
2023-03-06T04:24:03.349Z,82.1
2023-03-06T04:27:03.339Z,82.1
2023-03-06T04:30:03.340Z,82.1
2023-03-06T04:33:03.325Z,82.1
2023-03-06T04:36:03.412Z,82.1
2023-03-06T04:39:03.568Z,82.5
2023-03-06T04:42:03.336Z,82.5
2023-03-06T04:45:03.416Z,82.5
2023-03-06T04:48:03.360Z,82.5
2023-03-06T04:51:03.390Z,82.5
2023-03-06T04:54:03.373Z,82.5
2023-03-06T04:57:03.347Z,82.5
2023-03-06T05:00:03.407Z,82.5
2023-03-06T05:03:03.388Z,82.5
2023-03-06T05:06:03.359Z,82.5
2023-03-06T05:09:03.344Z,82.5
2023-03-06T05:12:03.357Z,82.5
2023-03-06T05:15:03.439Z,82.5
2023-03-06T05:18:03.366Z,82.5
2023-03-06T05:21:03.310Z,82.5
2023-03-06T05:24:03.354Z,82.5
2023-03-06T05:27:03.390Z,83.2
2023-03-06T05:30:03.312Z,83.2
2023-03-06T05:33:03.311Z,83.2
2023-03-06T05:36:03.354Z,83.2
2023-03-06T05:39:03.351Z,83.2
2023-03-06T05:42:03.368Z,83.2
2023-03-06T05:45:03.410Z,83.2
2023-03-06T05:48:03.306Z,83.2
2023-03-06T05:51:03.365Z,83.2
2023-03-06T05:54:03.339Z,83.2
2023-03-06T05:57:03.303Z,83.2
2023-03-06T06:00:03.468Z,83.2
2023-03-06T06:03:03.358Z,83.2
2023-03-06T06:06:03.360Z,83.2
2023-03-06T06:09:03.407Z,83.2
2023-03-06T06:12:03.421Z,83.2
2023-03-06T06:15:03.422Z,83.2
2023-03-06T06:18:03.440Z,83.2
2023-03-06T06:21:03.543Z,83.7
2023-03-06T06:24:03.412Z,83.7
2023-03-06T06:27:06.408Z,83.7
2023-03-06T06:30:03.784Z,83.7
2023-03-06T06:33:03.379Z,83.7
2023-03-06T06:36:03.474Z,83.7
2023-03-06T06:39:03.584Z,83.7
2023-03-06T06:42:40.026Z,83.7
2023-03-06T06:45:03.460Z,83.7
2023-03-06T06:48:03.561Z,83.7
2023-03-06T06:51:03.617Z,83.7
2023-03-06T06:54:03.332Z,83.7
2023-03-06T06:57:03.414Z,83.7
2023-03-06T07:00:03.503Z,83.7
2023-03-06T07:03:03.413Z,83.7
2023-03-06T07:06:03.468Z,83.7
2023-03-06T07:09:03.402Z,83.7
2023-03-06T07:12:03.461Z,85.1
2023-03-06T07:15:03.720Z,85.1
2023-03-06T07:18:03.397Z,85.1
2023-03-06T07:21:03.935Z,85.1
2023-03-06T07:24:03.533Z,85.1
2023-03-06T07:27:03.348Z,85.1
2023-03-06T07:30:03.360Z,85.1
2023-03-06T07:33:03.320Z,85.1
2023-03-06T07:36:03.667Z,85.1
2023-03-06T07:39:03.388Z,85.1
2023-03-06T07:42:03.512Z,85.1
2023-03-06T07:45:03.428Z,85.1
2023-03-06T07:48:05.544Z,85.1
2023-03-06T07:51:03.446Z,85.1
2023-03-06T07:54:03.459Z,85.1
2023-03-06T07:57:03.427Z,85.1
2023-03-06T08:00:03.923Z,85.1
2023-03-06T08:03:03.741Z,85.1
2023-03-06T08:06:03.512Z,85.1
2023-03-06T08:09:03.428Z,85.1
2023-03-06T08:12:03.396Z,85.1
2023-03-06T08:15:03.514Z,85.1
2023-03-06T08:18:03.396Z,85.1
2023-03-06T08:21:03.396Z,85.1
2023-03-06T08:24:03.420Z,85.1
2023-03-06T08:27:03.445Z,85.1
2023-03-06T08:30:03.525Z,85.1
2023-03-06T08:33:03.431Z,85.1
2023-03-06T08:36:04.882Z,85.1
2023-03-06T08:39:03.407Z,85.1
2023-03-06T08:42:04.106Z,85.1
2023-03-06T08:45:03.402Z,85.1
2023-03-06T08:48:03.423Z,85.1
2023-03-06T08:51:03.366Z,85.1
2023-03-06T08:54:03.519Z,85.1
2023-03-06T08:57:03.582Z,85.1
2023-03-06T09:00:03.468Z,85.1
2023-03-06T09:03:03.432Z,85.1
2023-03-06T09:06:03.389Z,85.1
2023-03-06T09:09:03.433Z,85.1
2023-03-06T09:12:03.364Z,85.1
2023-03-06T09:15:03.537Z,85.1
2023-03-06T09:18:03.560Z,85.1
2023-03-06T09:21:03.342Z,85.1
2023-03-06T09:24:03.389Z,83.6
2023-03-06T09:27:03.341Z,83.6
2023-03-06T09:30:03.516Z,83.6
2023-03-06T09:33:03.402Z,83.6
2023-03-06T09:36:03.561Z,83.6
2023-03-06T09:39:03.419Z,83.6
2023-03-06T09:42:03.391Z,83.6
2023-03-06T09:45:03.404Z,83.6
2023-03-06T09:48:03.410Z,83.6
2023-03-06T09:51:03.456Z,83.6
2023-03-06T09:54:03.381Z,83.6
2023-03-06T09:57:03.427Z,83.6
2023-03-06T10:00:06.934Z,83.6
2023-03-06T10:03:03.687Z,83.6
2023-03-06T10:06:05.167Z,83.6
2023-03-06T10:09:03.544Z,83.6
2023-03-06T10:12:03.386Z,83.6
2023-03-06T10:15:03.414Z,83.6
2023-03-06T10:18:03.410Z,83.6
2023-03-06T10:21:21.750Z,82.2
2023-03-06T10:24:03.373Z,82.2
2023-03-06T10:27:03.684Z,82.2
2023-03-06T10:30:06.615Z,82.2
2023-03-06T10:33:03.577Z,82.2
2023-03-06T10:36:03.635Z,82.2
2023-03-06T10:39:03.413Z,82.2
2023-03-06T10:42:03.518Z,82.2
2023-03-06T10:45:03.508Z,82.2
2023-03-06T10:48:03.476Z,82.2
2023-03-06T10:51:19.210Z,82.2
2023-03-06T10:54:03.436Z,82.2
2023-03-06T10:57:03.385Z,82.2
2023-03-06T11:00:03.610Z,82.2
2023-03-06T11:03:03.444Z,82.2
2023-03-06T11:06:03.403Z,84
2023-03-06T11:09:03.368Z,84
2023-03-06T11:12:03.456Z,84
2023-03-06T11:15:03.637Z,84.8
2023-03-06T11:18:03.396Z,84.8
2023-03-06T11:21:03.587Z,84.8
2023-03-06T11:24:03.327Z,84.8
2023-03-06T11:27:03.351Z,84.8
2023-03-06T11:30:03.513Z,84.8
2023-03-06T11:33:03.341Z,86.5
2023-03-06T11:36:03.411Z,86.5
2023-03-06T11:39:03.332Z,86.5
2023-03-06T11:42:03.394Z,86.5
2023-03-06T11:45:05.602Z,86.5
2023-03-06T11:48:03.545Z,86.5
2023-03-06T11:51:03.943Z,86.5
2023-03-06T11:54:04.335Z,86.5
2023-03-06T11:57:03.717Z,86.5
2023-03-06T12:00:04.145Z,86.5
2023-03-06T12:03:03.835Z,86.5
2023-03-06T12:06:03.727Z,86.5
2023-03-06T12:09:03.757Z,86.5
2023-03-06T12:12:03.648Z,86.5
2023-03-06T12:15:04.609Z,86.5
2023-03-06T12:18:03.816Z,86.5
2023-03-06T12:21:03.948Z,86.5
2023-03-06T12:30:04.385Z,86.5
2023-03-06T12:33:03.452Z,86.5
2023-03-06T12:36:04.107Z,86.5
2023-03-06T12:39:03.408Z,86.5
2023-03-06T12:42:06.732Z,86.5
2023-03-06T12:45:04.156Z,86.5
2023-03-06T12:48:03.376Z,86.5
2023-03-06T12:51:03.415Z,86.5
2023-03-06T12:54:03.546Z,86.5
2023-03-06T12:57:03.602Z,86.5
2023-03-06T13:00:03.413Z,86.5
2023-03-06T13:03:03.965Z,86.5
2023-03-06T13:06:03.459Z,86.5
2023-03-06T13:09:03.452Z,86.5
2023-03-06T13:12:03.428Z,86.5
2023-03-06T13:15:03.616Z,86.5
2023-03-06T13:18:03.501Z,86.5
2023-03-06T13:24:03.278Z,86.5
2023-03-06T13:27:03.346Z,86.5
2023-03-06T13:30:03.254Z,86.5
2023-03-06T13:33:03.328Z,84.5
2023-03-06T13:36:03.426Z,84.5
2023-03-06T13:39:03.346Z,84.5
2023-03-06T13:42:03.365Z,84.5
2023-03-06T13:45:03.518Z,84.5
2023-03-06T13:48:46.111Z,84.5
2023-03-06T13:51:03.336Z,84.5
2023-03-06T13:54:03.514Z,84.5
2023-03-06T13:57:03.378Z,84.5
2023-03-06T14:00:12.456Z,84.5
2023-03-06T14:03:03.730Z,84.5
2023-03-06T14:06:03.347Z,84.5
2023-03-06T14:09:03.393Z,84.5
2023-03-06T14:12:03.851Z,84.5
2023-03-06T14:15:03.375Z,84.5
2023-03-06T14:18:03.409Z,78.2
2023-03-06T14:21:03.406Z,78.2
2023-03-06T14:24:03.510Z,78.2
2023-03-06T14:27:03.375Z,78.2
2023-03-06T14:30:03.568Z,78.2
2023-03-06T14:33:03.448Z,78.2
2023-03-06T14:36:03.593Z,78.2
2023-03-06T14:39:03.639Z,78.2
2023-03-06T14:42:03.323Z,78.2
2023-03-06T14:45:03.406Z,78.2
2023-03-06T14:48:03.460Z,78.2
2023-03-06T14:51:03.381Z,78.2
2023-03-06T14:54:03.406Z,78.2
2023-03-06T14:57:03.373Z,78.2
2023-03-06T15:00:03.656Z,78.2
2023-03-06T15:03:03.486Z,78.2
2023-03-06T15:06:03.393Z,78.2
2023-03-06T15:09:04.777Z,78.2
2023-03-06T15:12:03.484Z,76.6
2023-03-06T15:15:03.392Z,76.6
2023-03-06T15:18:03.567Z,76.6
2023-03-06T15:21:03.283Z,76.6
2023-03-06T15:24:03.417Z,76.6
2023-03-06T15:27:03.400Z,76.6
2023-03-06T15:30:03.477Z,76.6
2023-03-06T15:33:03.407Z,76.6
2023-03-06T15:36:03.523Z,76.6
2023-03-06T15:39:03.527Z,76.6
2023-03-06T15:42:05.052Z,76.6
2023-03-06T15:45:03.437Z,76.6
2023-03-06T15:48:03.389Z,76.6
2023-03-06T15:51:03.492Z,76.6
2023-03-06T15:54:15.136Z,76.6
2023-03-06T15:57:03.374Z,76.6
2023-03-06T16:00:03.592Z,76.6
2023-03-06T16:03:03.386Z,76.6
2023-03-06T16:06:03.443Z,76.6
2023-03-06T16:09:03.429Z,76.6
2023-03-06T16:12:03.388Z,76.6
2023-03-06T16:15:03.399Z,76.6
2023-03-06T16:18:03.379Z,76.6
2023-03-06T16:21:03.458Z,76.6
2023-03-06T16:24:03.419Z,76.6
2023-03-06T16:27:03.344Z,76.6
2023-03-06T16:30:03.616Z,76.6
2023-03-06T16:33:03.372Z,76.6
2023-03-06T16:36:03.336Z,76.6
2023-03-06T16:39:03.413Z,76.6
2023-03-06T16:42:03.376Z,76.6
2023-03-06T16:45:03.474Z,76.6
2023-03-06T16:48:03.376Z,76.6
2023-03-06T16:51:03.408Z,76.6
2023-03-06T16:54:03.446Z,76.6
2023-03-06T16:57:03.394Z,76.6
2023-03-06T17:00:03.734Z,78
2023-03-06T17:06:03.578Z,78
2023-03-06T17:09:03.459Z,78
2023-03-06T17:12:03.472Z,78
2023-03-06T17:15:03.537Z,78
2023-03-06T17:18:03.621Z,78
2023-03-06T17:21:03.394Z,78
2023-03-06T17:24:03.410Z,78
2023-03-06T17:27:03.373Z,78
2023-03-06T17:30:03.710Z,78
2023-03-06T17:33:03.393Z,78
2023-03-06T17:36:03.458Z,78
2023-03-06T17:39:03.402Z,78
2023-03-06T17:42:03.476Z,78
2023-03-06T17:45:03.435Z,78
2023-03-06T17:48:03.405Z,78
2023-03-06T17:51:03.481Z,80.7
2023-03-06T17:54:03.421Z,80.7
2023-03-06T17:57:03.651Z,80.7
2023-03-06T18:00:03.444Z,80.7
2023-03-06T18:03:03.401Z,80.7
2023-03-06T18:06:03.418Z,80.7
2023-03-06T18:09:03.458Z,80.7
2023-03-06T18:12:03.454Z,80.7
2023-03-06T18:15:03.358Z,80.7
2023-03-06T18:18:03.441Z,80.7
2023-03-06T18:21:03.377Z,80.7
2023-03-06T18:24:03.485Z,80.7
2023-03-06T18:27:03.406Z,80.7
2023-03-06T18:30:03.483Z,80.7
2023-03-06T18:33:03.351Z,80.7
2023-03-06T18:36:03.379Z,80.7
2023-03-06T18:39:03.430Z,81.3
2023-03-06T18:42:03.371Z,81.3
2023-03-06T18:45:03.438Z,81.3
2023-03-06T18:48:03.461Z,81.3
2023-03-06T18:51:03.464Z,81.3
2023-03-06T18:54:03.447Z,81.3
2023-03-06T18:57:03.449Z,81.3
2023-03-06T19:00:03.445Z,81.3
2023-03-06T19:03:03.401Z,81.3
2023-03-06T19:06:03.464Z,81.3
2023-03-06T19:09:03.420Z,81.3
2023-03-06T19:12:03.423Z,81.3
2023-03-06T19:15:03.443Z,81.3
2023-03-06T19:18:03.461Z,81.3
2023-03-06T19:21:03.413Z,81.3
2023-03-06T19:24:03.445Z,82.1
2023-03-06T19:27:03.450Z,82.1
2023-03-06T19:30:03.466Z,82.1
2023-03-06T19:33:03.408Z,82.1
2023-03-06T19:36:03.446Z,82.1
2023-03-06T19:39:03.397Z,82.1
2023-03-06T19:42:03.395Z,82.1
2023-03-06T19:45:03.442Z,82.1
2023-03-06T19:48:03.410Z,82.5
2023-03-06T19:51:03.404Z,82.5
2023-03-06T19:54:03.419Z,82.5
2023-03-06T19:57:03.435Z,82.5
2023-03-06T20:00:03.500Z,82.5
2023-03-06T20:03:03.458Z,82.5
2023-03-06T20:06:03.581Z,82.5
2023-03-06T20:09:03.445Z,82.5
2023-03-06T20:12:03.491Z,82.5
2023-03-06T20:15:03.485Z,84
2023-03-06T20:18:03.414Z,84
2023-03-06T20:21:03.427Z,84
2023-03-06T20:24:03.394Z,84
2023-03-06T20:27:03.445Z,84
2023-03-06T20:30:03.411Z,84
2023-03-06T20:33:03.402Z,84
2023-03-06T20:36:03.749Z,84.6
2023-03-06T20:39:03.406Z,84.6
2023-03-06T20:42:03.414Z,84.6
2023-03-06T20:45:03.452Z,84.6
2023-03-06T20:48:03.401Z,84.6
2023-03-06T20:51:03.443Z,84.6
2023-03-06T20:54:03.412Z,84.6
2023-03-06T20:57:03.420Z,84.6
2023-03-06T21:00:03.470Z,84.6
2023-03-06T21:03:03.402Z,84.6
2023-03-06T21:06:03.411Z,85.6
2023-03-06T21:09:03.516Z,85.6
2023-03-06T21:12:03.401Z,85.6
2023-03-06T21:15:03.430Z,85.6
2023-03-06T21:18:03.439Z,85.6
2023-03-06T21:21:03.553Z,85.5
2023-03-06T21:24:03.477Z,85.5
2023-03-06T21:27:03.391Z,85.5
2023-03-06T21:30:03.488Z,85.5
2023-03-06T21:33:03.371Z,85.5
2023-03-06T21:36:03.576Z,85.7
2023-03-06T21:39:03.468Z,85.7
2023-03-06T21:42:03.517Z,85.7
2023-03-06T21:45:03.984Z,85.7
2023-03-06T21:48:03.416Z,85.7
2023-03-06T21:51:03.424Z,85.7
2023-03-06T21:54:03.388Z,86.1
2023-03-06T21:57:03.397Z,86.1
2023-03-06T22:00:03.529Z,86.1
2023-03-06T22:03:03.436Z,86.1
2023-03-06T22:06:03.374Z,86.1
2023-03-06T22:09:03.461Z,86.5
2023-03-06T22:12:03.438Z,86.5
2023-03-06T22:15:03.489Z,86.5
2023-03-06T22:18:03.405Z,86.5
2023-03-06T22:21:03.395Z,86.5
2023-03-06T22:24:03.394Z,86.6
2023-03-06T22:27:03.367Z,86.6
2023-03-06T22:30:03.432Z,86.6
2023-03-06T22:33:03.406Z,86.6
2023-03-06T22:36:03.588Z,86.6
2023-03-06T22:39:03.419Z,86.6
2023-03-06T22:42:03.365Z,86.6
2023-03-06T22:45:03.414Z,86.6
2023-03-06T22:48:13.656Z,86.6
2023-03-06T22:51:03.395Z,86.9
2023-03-06T22:54:03.431Z,86.9
2023-03-06T22:57:03.388Z,86.9
2023-03-06T23:00:03.793Z,86.9
2023-03-06T23:03:03.383Z,86.9
2023-03-06T23:06:03.449Z,87.4
2023-03-06T23:09:03.418Z,87.4
2023-03-06T23:12:03.390Z,87.4
2023-03-06T23:15:03.612Z,87.4
2023-03-06T23:18:03.433Z,86.3
2023-03-06T23:21:03.403Z,86.2
2023-03-06T23:24:03.495Z,86.2
2023-03-06T23:27:03.376Z,86.2
2023-03-06T23:30:03.417Z,85.5
2023-03-06T23:33:03.461Z,85.5
2023-03-06T23:36:03.507Z,85.5
2023-03-06T23:39:03.434Z,85.5
2023-03-06T23:42:03.506Z,85.5
2023-03-06T23:45:03.481Z,85.5
2023-03-06T23:48:03.425Z,85.5
2023-03-06T23:51:03.515Z,85.5
2023-03-06T23:54:03.502Z,85.5
2023-03-06T23:57:03.408Z,86.1
